Jack Brusco — WDC3066 — position and weather

sailwx.info

Track history (hours):
 
Tides and Currents Weather Stations Pressure Air Temp Water Temp Dewpoint Dewpoint Depression Visibility Wind Speed Wind Dir Waves Ship Positions

Jack Brusco

Owner: Brusco Tug & Barge, Inc., Longview, WA. More information available from US FCC via Universal Licensing System and Coast Guard Vessel Documentation Center.

Last reported at 2016-Sep-01 13:33 UTC. Time now 2016-Sep-25 02:03 UTC.
Position N 46°12' W 123°23'.
Warning: this ship's position is 23 days out of date.

Length 36 m; draft 5.2 m.

Type: Tug. MMSI: 3699086.

Date/timePositionNaut miles runAvg speedWind from/ knotsBaromVisibWave heightAir tempDewpointWater temp
2016-Sep-01 13:33N 46°12' W 123°23'0 0.0
2016-Sep-01 12:31N 46°12' W 123°23'0 0.0
2016-Sep-01 11:33N 46°12' W 123°23'0 0.0
2016-Sep-01 10:30N 46°12' W 123°23'0 0.0
2016-Sep-01 09:25N 46°12' W 123°23'0 0.0
2016-Sep-01 08:31N 46°12' W 123°23'0 0.0
2016-Sep-01 07:27N 46°12' W 123°23'0 0.0
2016-Sep-01 06:31N 46°12' W 123°23'0 0.0
2016-Sep-01 05:31N 46°12' W 123°23'0 0.0
2016-Sep-01 04:31N 46°12' W 123°23'0 0.0
2016-Sep-01 03:31N 46°12' W 123°23'0 0.0
2016-Sep-01 02:31N 46°12' W 123°23'0 0.0
2016-Sep-01 01:31N 46°12' W 123°23'0 0.0
2016-Sep-01 00:31N 46°12' W 123°23'0 0.0
2016-Aug-31 23:33N 46°12' W 123°23'0 0.0
2016-Aug-31 22:29N 46°12' W 123°23'0 0.0
2016-Aug-31 21:31N 46°12' W 123°23'0 0.0
2016-Aug-31 20:30N 46°12' W 123°23'0 0.0
2016-Aug-31 19:25N 46°12' W 123°23'0 0.0
2016-Aug-31 18:32N 46°12' W 123°23'0 0.0
2016-Aug-31 17:31N 46°12' W 123°23'0 0.0
2016-Aug-31 16:31N 46°12' W 123°23'0 0.0
2016-Aug-31 15:33N 46°12' W 123°23'0 0.0
2016-Aug-31 14:31N 46°12' W 123°23'0 0.0
2016-Aug-31 13:34N 46°12' W 123°23'0 0.0
2016-Aug-31 12:34N 46°12' W 123°23'0 0.0
2016-Aug-31 11:33N 46°12' W 123°23'0 0.0
2016-Aug-31 10:33N 46°12' W 123°23'0 0.0
2016-Aug-31 09:33N 46°12' W 123°23'0 0.1
2016-Aug-31 08:34N 46°12' W 123°23'5 5.2
2016-Aug-31 07:33N 46°09' W 123°18'1211.9
2016-Aug-31 06:34N 46°08' W 123°00'4 4.0
2016-Aug-31 05:33N 46°06' W 122°56'4 4.3
2016-Aug-31 04:33N 46°08' W 123°01'8 7.6
2016-Aug-31 03:33N 46°11' W 123°11'8 7.8
2016-Aug-31 02:33N 46°09' W 123°22'7 7.4
2016-Aug-31 01:33N 46°15' W 123°27'8 7.8
2016-Aug-31 00:33N 46°16' W 123°38'8 7.8
2016-Aug-30 23:33N 46°12' W 123°48'7 6.9
2016-Aug-30 22:33N 46°13' W 123°58'6 5.7
2016-Aug-30 21:34N 46°14' W 124°06'7 7.4
2016-Aug-30 20:33N 46°07' W 124°09'9 9.5
2016-Aug-30 19:33N 45°58' W 124°08'9 9.4
2016-Aug-30 18:33N 45°49' W 124°07'9 9.5
2016-Aug-30 17:34N 45°39' W 124°05'10 9.8
2016-Aug-30 16:33N 45°29' W 124°04'10 9.4
2016-Aug-30 15:30N 45°19' W 124°05'37 8.4
2016-Aug-30 11:06N 44°43' W 124°14'5 7.9
2016-Aug-30 10:26N 44°38' W 124°16'361 9.0
2016-Aug-28 18:16N 38°38' W 123°38'9 9.6
2016-Aug-28 17:19N 38°30' W 123°33'7 9.5
2016-Aug-28 16:33N 38°23' W 123°29'9 9.4
2016-Aug-28 15:33N 38°15' W 123°23'9 9.4
2016-Aug-28 14:33N 38°07' W 123°17'9 9.5
2016-Aug-28 13:33N 37°60' W 123°09'9 9.5
2016-Aug-28 12:33N 37°55' W 122°59'10 9.4
2016-Aug-28 11:31N 37°50' W 122°49'11 9.5
2016-Aug-28 10:23N 37°41' W 122°41'8 9.6
2016-Aug-28 09:33N 37°33' W 122°40'9 9.4
2016-Aug-28 08:33N 37°23' W 122°40'12 9.0
2016-Aug-28 07:13N 37°12' W 122°35'6 9.5
2016-Aug-28 06:33N 37°06' W 122°32'10 9.4
2016-Aug-28 05:31N 36°58' W 122°26'9 9.1
2016-Aug-28 04:33N 36°50' W 122°21'9 8.8
2016-Aug-28 03:33N 36°42' W 122°17'9 9.0
2016-Aug-28 02:33N 36°33' W 122°14'9 9.1
2016-Aug-28 01:33N 36°24' W 122°10'9 9.1
2016-Aug-28 00:33N 36°16' W 122°05'9 9.3
2016-Aug-27 23:33N 36°09' W 121°57'9 9.1
2016-Aug-27 22:33N 36°03' W 121°50'10 9.3
2016-Aug-27 21:32N 35°55' W 121°43'18 9.0
2016-Aug-27 19:30N 35°41' W 121°28'9 9.2
2016-Aug-27 18:33N 35°35' W 121°21'212 8.4
2016-Aug-26 17:19N 33°20' W 118°02'8 9.5
2016-Aug-26 16:30N 33°14' W 117°57'5 5.4
2016-Aug-26 15:33N 33°10' W 117°53'10 9.8
2016-Aug-26 14:33N 33°03' W 117°44'10 9.7
2016-Aug-26 13:33N 32°56' W 117°37'10 9.5
2016-Aug-26 12:33N 32°47' W 117°33'10 9.6
2016-Aug-26 11:30N 32°37' W 117°30'  
Track history (hours):
 
Tides and Currents Weather Stations Pressure Air Temp Water Temp Dewpoint Dewpoint Depression Visibility Wind Speed Wind Dir Waves Ship Positions

Jack Brusco

Owner: Brusco Tug & Barge, Inc., Longview, WA. More information available from US FCC via Universal Licensing System and Coast Guard Vessel Documentation Center.

Last reported at 2016-Sep-01 13:33 UTC. Time now 2016-Sep-25 02:03 UTC.
Position N 46°12' W 123°23'.
Warning: this ship's position is 23 days out of date.

Length 36 m; draft 5.2 m.

Type: Tug. MMSI: 3699086.

Date/timePositionNaut miles runAvg speedWind from/ knotsBaromVisibWave heightAir tempDewpointWater temp
2016-Sep-01 13:33N 46°12' W 123°23'0 0.0
2016-Sep-01 12:31N 46°12' W 123°23'0 0.0
2016-Sep-01 11:33N 46°12' W 123°23'0 0.0
2016-Sep-01 10:30N 46°12' W 123°23'0 0.0
2016-Sep-01 09:25N 46°12' W 123°23'0 0.0
2016-Sep-01 08:31N 46°12' W 123°23'0 0.0
2016-Sep-01 07:27N 46°12' W 123°23'0 0.0
2016-Sep-01 06:31N 46°12' W 123°23'0 0.0
2016-Sep-01 05:31N 46°12' W 123°23'0 0.0
2016-Sep-01 04:31N 46°12' W 123°23'0 0.0
2016-Sep-01 03:31N 46°12' W 123°23'0 0.0
2016-Sep-01 02:31N 46°12' W 123°23'0 0.0
2016-Sep-01 01:31N 46°12' W 123°23'0 0.0
2016-Sep-01 00:31N 46°12' W 123°23'0 0.0
2016-Aug-31 23:33N 46°12' W 123°23'0 0.0
2016-Aug-31 22:29N 46°12' W 123°23'0 0.0
2016-Aug-31 21:31N 46°12' W 123°23'0 0.0
2016-Aug-31 20:30N 46°12' W 123°23'0 0.0
2016-Aug-31 19:25N 46°12' W 123°23'0 0.0
2016-Aug-31 18:32N 46°12' W 123°23'0 0.0
2016-Aug-31 17:31N 46°12' W 123°23'0 0.0
2016-Aug-31 16:31N 46°12' W 123°23'0 0.0
2016-Aug-31 15:33N 46°12' W 123°23'0 0.0
2016-Aug-31 14:31N 46°12' W 123°23'0 0.0
2016-Aug-31 13:34N 46°12' W 123°23'0 0.0
2016-Aug-31 12:34N 46°12' W 123°23'0 0.0
2016-Aug-31 11:33N 46°12' W 123°23'0 0.0
2016-Aug-31 10:33N 46°12' W 123°23'0 0.0
2016-Aug-31 09:33N 46°12' W 123°23'0 0.1
2016-Aug-31 08:34N 46°12' W 123°23'5 5.2
2016-Aug-31 07:33N 46°09' W 123°18'1211.9
2016-Aug-31 06:34N 46°08' W 123°00'4 4.0
2016-Aug-31 05:33N 46°06' W 122°56'4 4.3
2016-Aug-31 04:33N 46°08' W 123°01'8 7.6
2016-Aug-31 03:33N 46°11' W 123°11'8 7.8
2016-Aug-31 02:33N 46°09' W 123°22'7 7.4
2016-Aug-31 01:33N 46°15' W 123°27'8 7.8
2016-Aug-31 00:33N 46°16' W 123°38'8 7.8
2016-Aug-30 23:33N 46°12' W 123°48'7 6.9
2016-Aug-30 22:33N 46°13' W 123°58'6 5.7
2016-Aug-30 21:34N 46°14' W 124°06'7 7.4
2016-Aug-30 20:33N 46°07' W 124°09'9 9.5
2016-Aug-30 19:33N 45°58' W 124°08'9 9.4
2016-Aug-30 18:33N 45°49' W 124°07'9 9.5
2016-Aug-30 17:34N 45°39' W 124°05'10 9.8
2016-Aug-30 16:33N 45°29' W 124°04'10 9.4
2016-Aug-30 15:30N 45°19' W 124°05'37 8.4
2016-Aug-30 11:06N 44°43' W 124°14'5 7.9
2016-Aug-30 10:26N 44°38' W 124°16'361 9.0
2016-Aug-28 18:16N 38°38' W 123°38'9 9.6
2016-Aug-28 17:19N 38°30' W 123°33'7 9.5
2016-Aug-28 16:33N 38°23' W 123°29'9 9.4
2016-Aug-28 15:33N 38°15' W 123°23'9 9.4
2016-Aug-28 14:33N 38°07' W 123°17'9 9.5
2016-Aug-28 13:33N 37°60' W 123°09'9 9.5
2016-Aug-28 12:33N 37°55' W 122°59'10 9.4
2016-Aug-28 11:31N 37°50' W 122°49'11 9.5
2016-Aug-28 10:23N 37°41' W 122°41'8 9.6
2016-Aug-28 09:33N 37°33' W 122°40'9 9.4
2016-Aug-28 08:33N 37°23' W 122°40'12 9.0
2016-Aug-28 07:13N 37°12' W 122°35'6 9.5
2016-Aug-28 06:33N 37°06' W 122°32'10 9.4
2016-Aug-28 05:31N 36°58' W 122°26'9 9.1
2016-Aug-28 04:33N 36°50' W 122°21'9 8.8
2016-Aug-28 03:33N 36°42' W 122°17'9 9.0
2016-Aug-28 02:33N 36°33' W 122°14'9 9.1
2016-Aug-28 01:33N 36°24' W 122°10'9 9.1
2016-Aug-28 00:33N 36°16' W 122°05'9 9.3
2016-Aug-27 23:33N 36°09' W 121°57'9 9.1
2016-Aug-27 22:33N 36°03' W 121°50'10 9.3
2016-Aug-27 21:32N 35°55' W 121°43'18 9.0
2016-Aug-27 19:30N 35°41' W 121°28'9 9.2
2016-Aug-27 18:33N 35°35' W 121°21'212 8.4
2016-Aug-26 17:19N 33°20' W 118°02'8 9.5
2016-Aug-26 16:30N 33°14' W 117°57'5 5.4
2016-Aug-26 15:33N 33°10' W 117°53'10 9.8
2016-Aug-26 14:33N 33°03' W 117°44'10 9.7
2016-Aug-26 13:33N 32°56' W 117°37'10 9.5
2016-Aug-26 12:33N 32°47' W 117°33'10 9.6
2016-Aug-26 11:30N 32°37' W 117°30'  

Dump ship's entire track history